Latest METARs, TAFs and NOTAMs for SKCG


---------------------------------------------------------------------------
	(OBSERVATIONS)
SKCG 230800Z 00000KT 9999 FEW015 SCT070 26/25 A2972=
SKCG 230700Z 00000KT 9999 FEW015 SCT070 26/25 A2973=
SKCG 230600Z 05003KT 9999 FEW015 SCT200 27/26 A2976=
---------------------------------------------------------------------------
	(TERMINAL AREA FORECAST)
SKCG 230500Z 2306/2406 04007KT 9999 SCT018 BKN090
    TEMPO 2310/2316 20010KT
    BECMG 2316/2318 32010KT FEW020 SCT200
    BECMG 2401/2403 03005KT
    TX33/2319Z TN26/2311Z=
---------------------------------------------------------------------------
	(NOTAMS)


SKCG A1298/18 MID TRANSMISSOMETER RWY 01 U/S. H24, 28 JUN 13:09
    2018 UNTIL 28 SEP 23:59 2018 ESTIMATED. CREATED: 28 JUN 13:14
    2018

SKCG A1681/18 WDI RWY 19 U/S. 12 AUG 14:52 2018 UNTIL 12 NOV
    23:59 2018 ESTIMATED. CREATED: 12 AUG 14:54 2018

SKCG A1943/18 RWY 01/19 CLSD. FM SEP 12 TIL SEP 30 BTN 0615-1015
    FM OCT 01 TIL OCT 27 BTN 0615-1015 NOV 14,15,16,17 BTN 0615-1015
    DEC 17,18,19,20 BTN 0610-1015, 12 SEP 06:15 2018 UNTIL 20
    DEC 10:15 2018. CREATED: 11 SEP 12:52 2018

SKCG A1954/18 TRIGGER NOTAM - AIRAC AIP SUP A29/18 WEF 14SEP2018
    SPORTY AVIATION ZONE REF. AIP ENR 5.5-22, 5.5-23, PARAGLIDING
    ZONE 16,17,18,19. 14 SEP 03:48 2018 UNTIL 28 SEP 23:59 2018.
    CREATED: 14 SEP 04:00 2018

SKCG A1994/18 DECLARED DIST RWY 01/19 CHG: RWY TORA TODA ASDA
    LDA 01 2420 2540 2420 2390 19 2390 2510 2390 2390. 15 OCT
    00:00 2018 UNTIL 10 JAN 23:59 2019. CREATED: 21 SEP 16:46
    2018

SKCG A2997/09 FIRE FIGHTING AND RESCUE DOWNGRADED TO CAT 7 09
    DEC 20:30 UNTIL 10 DEC 23:00 ESTIMATED

---------------------------------------------------------------------------